Time;durP1;ratioP1;P1;durP2;ratioP2;P2;SDS_P1;SDS_P2;PMS_P1;PMS_P2;Temp;Humidity;BMP_temperature;BMP_pressure;BME280_temperature;BME280_humidity;BME280_pressure;Samples;Min_cycle;Max_cycle;Signal;HPM_P1;HPM_P2
2021/04/14 00:00:35;;;;;;;7.30;3.47;;;4.30;78.60;;;;;;5080420;28;20513;-76
2021/04/14 00:03:06;;;;;;;6.63;3.70;;;4.20;79.20;;;;;;5085368;28;20169;-77
2021/04/14 00:05:36;;;;;;;6.03;3.83;;;4.30;79.80;;;;;;5089027;28;20127;-76
2021/04/14 00:08:04;;;;;;;6.07;3.50;;;4.20;79.20;;;;;;5078600;28;20044;-77
2021/04/14 00:10:35;;;;;;;6.93;3.67;;;4.10;79.80;;;;;;5090584;28;20550;-76
2021/04/14 00:13:03;;;;;;;5.25;3.25;;;4.10;80.20;;;;;;5075113;28;20045;-76
2021/04/14 00:15:36;;;;;;;5.55;3.25;;;4.10;80.20;;;;;;5088211;28;20044;-76
2021/04/14 00:18:03;;;;;;;7.25;3.50;;;4.10;79.30;;;;;;5077085;28;20131;-76
2021/04/14 00:20:29;;;;;;;7.03;3.83;;;4.00;80.10;;;;;;5086252;28;20135;-76
2021/04/14 00:22:56;;;;;;;6.30;3.58;;;3.90;80.90;;;;;;5083611;28;20074;-76
2021/04/14 00:25:26;;;;;;;5.78;3.40;;;3.80;81.50;;;;;;5084286;28;20502;-76
2021/04/14 00:27:53;;;;;;;7.07;3.63;;;3.70;82.70;;;;;;5093378;28;20477;-75
2021/04/14 00:30:21;;;;;;;6.55;3.50;;;3.70;82.10;;;;;;5078326;28;20135;-76
2021/04/14 00:32:49;;;;;;;5.55;3.55;;;3.70;82.70;;;;;;5086669;28;20491;-76
2021/04/14 00:35:16;;;;;;;7.30;3.60;;;3.60;83.60;;;;;;5085754;28;20127;-76
2021/04/14 00:37:43;;;;;;;6.68;3.72;;;3.60;84.30;;;;;;5079114;28;20517;-75
2021/04/14 00:40:14;;;;;;;6.85;3.47;;;3.60;83.90;;;;;;5089478;28;20076;-76
2021/04/14 00:42:41;;;;;;;7.45;3.45;;;3.60;83.90;;;;;;5080857;28;20083;-77
2021/04/14 00:45:09;;;;;;;6.50;3.70;;;3.60;83.90;;;;;;5092577;28;20098;-76
2021/04/14 00:47:36;;;;;;;5.50;3.47;;;3.60;83.20;;;;;;5079623;28;20121;-75
2021/04/14 00:50:08;;;;;;;6.80;3.95;;;3.40;83.00;;;;;;5091761;28;20506;-75
2021/04/14 00:52:35;;;;;;;7.13;3.95;;;3.30;84.60;;;;;;5080142;28;20079;-75
2021/04/14 00:55:01;;;;;;;6.47;3.90;;;3.20;85.70;;;;;;5085251;28;20136;-76
2021/04/14 00:57:28;;;;;;;7.07;3.55;;;3.20;86.80;;;;;;5089169;28;20076;-76
2021/04/14 00:59:54;;;;;;;6.07;3.83;;;3.20;87.30;;;;;;5082648;28;20083;-77
2021/04/14 01:02:21;;;;;;;7.32;3.95;;;3.30;88.10;;;;;;5079356;28;20079;-75
2021/04/14 01:04:47;;;;;;;7.38;3.90;;;3.30;87.90;;;;;;5081554;28;20119;-74
2021/04/14 01:07:15;;;;;;;6.35;3.88;;;3.30;86.90;;;;;;5082264;28;20139;-78
2021/04/14 01:09:42;;;;;;;6.35;4.00;;;3.30;87.50;;;;;;5088944;28;20048;-76
2021/04/14 01:12:10;;;;;;;7.10;3.95;;;3.30;87.00;;;;;;5075105;28;20136;-78
2021/04/14 01:14:37;;;;;;;6.65;4.10;;;3.20;87.60;;;;;;5080091;28;20123;-77
2021/04/14 01:17:05;;;;;;;6.82;4.03;;;3.30;87.40;;;;;;5065602;28;20578;-75
2021/04/14 01:19:31;;;;;;;6.40;4.05;;;3.20;87.20;;;;;;5087505;28;20143;-75
2021/04/14 01:21:59;;;;;;;6.32;3.53;;;3.10;87.40;;;;;;5076242;28;20447;-75
2021/04/14 01:24:25;;;;;;;6.75;3.70;;;3.10;87.80;;;;;;5078052;28;20039;-75
2021/04/14 01:26:52;;;;;;;6.93;3.83;;;3.00;88.10;;;;;;5085110;28;20080;-76
2021/04/14 01:29:19;;;;;;;5.93;3.53;;;3.00;89.10;;;;;;5074341;28;20398;-75
2021/04/14 01:31:45;;;;;;;6.45;3.53;;;2.90;89.60;;;;;;5070512;28;20577;-75
2021/04/14 01:34:15;;;;;;;6.85;3.70;;;2.90;90.10;;;;;;5078371;28;20572;-75
2021/04/14 01:36:42;;;;;;;5.72;3.67;;;2.90;90.10;;;;;;5077109;28;20147;-76
2021/04/14 01:39:12;;;;;;;7.25;3.72;;;3.00;90.20;;;;;;5077920;28;20195;-76
2021/04/14 01:41:40;;;;;;;6.35;3.58;;;3.00;90.60;;;;;;5083582;28;20135;-75
2021/04/14 01:44:10;;;;;;;6.68;3.97;;;3.00;90.50;;;;;;5079751;28;20131;-76
2021/04/14 01:46:37;;;;;;;6.82;4.05;;;3.10;90.70;;;;;;5088278;28;20448;-77
2021/04/14 01:49:04;;;;;;;6.22;3.72;;;3.10;90.60;;;;;;5072755;28;20098;-77
2021/04/14 01:51:31;;;;;;;8.88;4.15;;;3.10;89.20;;;;;;5076059;28;20079;-77
2021/04/14 01:53:58;;;;;;;5.85;3.58;;;3.10;88.50;;;;;;5085654;28;20474;-78
2021/04/14 01:56:25;;;;;;;6.80;3.70;;;3.00;88.90;;;;;;5076275;28;20071;-77
2021/04/14 01:58:52;;;;;;;7.40;4.00;;;3.00;88.80;;;;;;5081144;28;20128;-77
2021/04/14 02:01:19;;;;;;;5.93;3.50;;;2.90;89.10;;;;;;5070060;28;20043;-76
2021/04/14 02:03:47;;;;;;;6.95;3.45;;;2.80;90.00;;;;;;5076848;28;20127;-77
2021/04/14 02:06:17;;;;;;;6.05;3.50;;;2.70;90.30;;;;;;5077320;28;20133;-75
2021/04/14 02:08:45;;;;;;;7.30;4.40;;;2.60;90.80;;;;;;5082167;28;20119;-76
2021/04/14 02:11:15;;;;;;;7.40;3.97;;;2.60;91.30;;;;;;5080382;28;20161;-74
2021/04/14 02:13:44;;;;;;;6.97;4.03;;;2.60;91.50;;;;;;5074188;28;20056;-76
2021/04/14 02:16:15;;;;;;;6.43;3.60;;;2.70;91.60;;;;;;5085547;28;20388;-75
2021/04/14 02:18:42;;;;;;;6.57;3.42;;;2.60;91.50;;;;;;5077103;28;20132;-75
2021/04/14 02:21:09;;;;;;;7.93;3.92;;;2.70;91.50;;;;;;5087543;28;20130;-77
2021/04/14 02:23:40;;;;;;;6.60;3.70;;;2.80;91.40;;;;;;5075139;28;20123;-76
2021/04/14 02:26:09;;;;;;;6.90;3.90;;;2.80;90.90;;;;;;5085974;28;20517;-75
2021/04/14 02:28:36;;;;;;;6.97;3.60;;;2.80;91.00;;;;;;5078793;28;20047;-76
2021/04/14 02:31:05;;;;;;;5.80;3.50;;;2.80;91.00;;;;;;5082804;28;20043;-77
2021/04/14 02:33:33;;;;;;;5.50;3.50;;;2.80;91.40;;;;;;5086717;28;20076;-75
2021/04/14 02:35:59;;;;;;;6.93;3.88;;;2.80;91.10;;;;;;5090821;28;20547;-77
2021/04/14 02:38:26;;;;;;;6.63;4.00;;;2.80;91.20;;;;;;5077216;28;20082;-76
2021/04/14 02:40:53;;;;;;;5.70;3.80;;;2.80;90.90;;;;;;5076945;28;20083;-76
2021/04/14 02:43:21;;;;;;;6.43;4.15;;;2.80;91.00;;;;;;5092649;28;20045;-75
2021/04/14 02:45:48;;;;;;;6.32;3.90;;;2.70;91.10;;;;;;5084463;28;20123;-77
2021/04/14 02:48:15;;;;;;;7.93;4.43;;;2.70;91.40;;;;;;5090344;28;20086;-75
2021/04/14 02:50:42;;;;;;;6.07;3.80;;;2.70;91.60;;;;;;5082145;28;20079;-77
2021/04/14 02:53:10;;;;;;;7.30;3.85;;;2.70;91.60;;;;;;5067721;28;20465;-76
2021/04/14 02:55:38;;;;;;;6.97;4.15;;;2.70;91.60;;;;;;5090654;28;20127;-75
2021/04/14 02:58:05;;;;;;;7.95;4.38;;;2.70;91.70;;;;;;5080502;28;20068;-76
2021/04/14 03:00:32;;;;;;;7.00;3.90;;;2.70;91.70;;;;;;5082373;28;20584;-75
2021/04/14 03:02:59;;;;;;;7.72;4.10;;;2.70;91.60;;;;;;5088380;28;20083;-75
2021/04/14 03:05:31;;;;;;;6.15;3.83;;;2.70;91.30;;;;;;5078262;28;20048;-76
2021/04/14 03:07:59;;;;;;;6.53;3.70;;;2.70;91.50;;;;;;5083829;28;20040;-75
2021/04/14 03:10:27;;;;;;;7.38;3.80;;;2.70;91.70;;;;;;5072790;28;20135;-75
2021/04/14 03:12:54;;;;;;;6.78;4.00;;;2.70;91.60;;;;;;5088187;28;20173;-77
2021/04/14 03:15:25;;;;;;;6.35;3.90;;;2.70;91.20;;;;;;5087666;28;20159;-75
2021/04/14 03:17:52;;;;;;;7.47;4.15;;;2.70;90.90;;;;;;5080789;28;20581;-74
2021/04/14 03:20:19;;;;;;;6.53;4.32;;;2.60;90.40;;;;;;5080496;28;20131;-75
2021/04/14 03:22:48;;;;;;;6.30;3.78;;;2.50;90.80;;;;;;5054963;28;20134;-76
2021/04/14 03:25:15;;;;;;;7.35;4.22;;;2.50;91.00;;;;;;5088673;28;20068;-74
2021/04/14 03:27:42;;;;;;;7.28;4.25;;;2.40;90.90;;;;;;5079154;28;20565;-75
2021/04/14 03:30:11;;;;;;;7.32;4.00;;;2.30;90.90;;;;;;5081319;28;20087;-77
2021/04/14 03:32:37;;;;;;;7.70;4.32;;;2.30;90.90;;;;;;5086782;28;20086;-76
2021/04/14 03:35:07;;;;;;;7.60;4.63;;;2.20;91.40;;;;;;5075183;28;20123;-76
2021/04/14 03:37:33;;;;;;;6.10;4.05;;;2.10;92.00;;;;;;5086487;28;20123;-77
2021/04/14 03:40:01;;;;;;;8.32;4.43;;;2.00;92.40;;;;;;5073341;28;20132;-75
2021/04/14 03:42:28;;;;;;;6.80;3.80;;;2.00;92.70;;;;;;5084224;28;20131;-75
2021/04/14 03:44:56;;;;;;;8.10;4.57;;;2.00;92.90;;;;;;5075137;28;20131;-75
2021/04/14 03:47:24;;;;;;;7.57;4.13;;;2.00;93.00;;;;;;5087820;28;20048;-75
2021/04/14 03:49:51;;;;;;;7.53;3.65;;;2.00;93.00;;;;;;5079769;28;20561;-74
2021/04/14 03:52:19;;;;;;;6.90;3.78;;;2.00;93.00;;;;;;5079579;28;20079;-76
2021/04/14 03:54:46;;;;;;;6.93;4.10;;;2.10;93.00;;;;;;5086854;28;20131;-75
2021/04/14 03:57:14;;;;;;;6.82;3.83;;;2.10;92.90;;;;;;5074690;28;20482;-75
2021/04/14 03:59:41;;;;;;;7.15;4.05;;;2.10;92.80;;;;;;5084761;28;20482;-75
2021/04/14 04:02:07;;;;;;;6.43;3.92;;;2.10;93.10;;;;;;5084420;28;20075;-75
2021/04/14 04:04:34;;;;;;;6.07;4.03;;;2.20;92.60;;;;;;5080829;28;20080;-74
2021/04/14 04:07:00;;;;;;;7.00;3.90;;;2.10;92.40;;;;;;5076877;28;20088;-74
2021/04/14 04:09:27;;;;;;;7.40;3.67;;;2.10;92.60;;;;;;5090307;28;20072;-75
2021/04/14 04:11:54;;;;;;;7.50;4.32;;;2.10;92.20;;;;;;5083525;28;20378;-76
2021/04/14 04:14:23;;;;;;;6.68;4.10;;;2.00;92.10;;;;;;5082890;28;20076;-77
2021/04/14 04:16:50;;;;;;;8.60;4.22;;;2.00;91.90;;;;;;5090798;28;20044;-74
2021/04/14 04:19:16;;;;;;;7.40;4.45;;;2.00;91.50;;;;;;5076051;28;20087;-77
2021/04/14 04:21:43;;;;;;;6.85;4.15;;;1.90;91.70;;;;;;5082981;28;20045;-76
2021/04/14 04:24:10;;;;;;;6.80;4.30;;;1.80;92.10;;;;;;5084111;28;20080;-76
2021/04/14 04:26:36;;;;;;;6.45;4.10;;;1.70;92.10;;;;;;5074873;28;20124;-77
2021/04/14 04:29:03;;;;;;;6.70;3.90;;;1.70;92.00;;;;;;5084260;28;20181;-78
2021/04/14 04:31:31;;;;;;;7.32;3.88;;;1.60;92.30;;;;;;5094144;28;20095;-77
2021/04/14 04:33:58;;;;;;;8.05;4.40;;;1.50;92.60;;;;;;5094847;28;20078;-79
2021/04/14 04:36:24;;;;;;;6.93;4.03;;;1.50;93.10;;;;;;5094838;28;20088;-77
2021/04/14 04:38:51;;;;;;;9.43;4.85;;;1.50;93.30;;;;;;5094756;28;20127;-77
2021/04/14 04:41:17;;;;;;;8.63;4.30;;;1.50;93.20;;;;;;5094567;28;20405;-78
2021/04/14 04:43:44;;;;;;;8.38;4.50;;;1.50;93.40;;;;;;5094625;28;20075;-77
2021/04/14 04:46:11;;;;;;;6.88;3.90;;;1.50;93.70;;;;;;5076470;28;20124;-77
2021/04/14 04:48:38;;;;;;;6.78;4.55;;;1.60;93.80;;;;;;5094311;28;20076;-76
2021/04/14 04:51:06;;;;;;;7.18;4.30;;;1.60;93.60;;;;;;5094219;28;20072;-76
2021/04/14 04:53:32;;;;;;;6.82;4.20;;;1.70;93.40;;;;;;5094206;28;20135;-76
2021/04/14 04:55:59;;;;;;;6.40;4.10;;;1.60;93.00;;;;;;5094074;28;20094;-77
2021/04/14 04:58:26;;;;;;;6.80;4.28;;;1.80;92.60;;;;;;5094352;28;20135;-75
2021/04/14 05:00:54;;;;;;;6.75;4.30;;;1.80;92.90;;;;;;5094077;28;20044;-75
2021/04/14 05:03:23;;;;;;;8.02;4.15;;;1.80;92.80;;;;;;5094040;28;20055;-75
2021/04/14 05:05:52;;;;;;;6.93;4.10;;;1.80;92.80;;;;;;5094211;28;20076;-75
2021/04/14 05:08:18;;;;;;;7.13;4.18;;;1.90;92.90;;;;;;5094176;28;20094;-75
2021/04/14 05:10:45;;;;;;;7.00;4.15;;;1.90;93.00;;;;;;5094012;28;20135;-75
2021/04/14 05:13:11;;;;;;;8.07;4.50;;;2.00;92.90;;;;;;5092905;28;20075;-75
2021/04/14 05:15:40;;;;;;;7.35;4.03;;;2.00;92.60;;;;;;5093655;28;20138;-76
2021/04/14 05:18:08;;;;;;;7.15;4.47;;;2.10;92.00;;;;;;5093697;28;20111;-75
2021/04/14 05:20:35;;;;;;;9.00;4.53;;;2.10;91.90;;;;;;5093925;28;20075;-75
2021/04/14 05:23:04;;;;;;;8.25;4.80;;;2.00;91.70;;;;;;5093768;28;20537;-74
2021/04/14 05:25:33;;;;;;;7.32;4.60;;;2.00;92.10;;;;;;5093710;28;20410;-75
2021/04/14 05:28:04;;;;;;;7.03;4.57;;;2.00;92.40;;;;;;5093701;28;20040;-74
2021/04/14 05:30:31;;;;;;;8.98;4.63;;;2.00;92.70;;;;;;5093839;28;20043;-75
2021/04/14 05:32:58;;;;;;;7.78;4.80;;;2.00;92.80;;;;;;5093872;28;20134;-76
2021/04/14 05:35:25;;;;;;;8.05;5.03;;;2.10;92.70;;;;;;5093407;28;20142;-75
2021/04/14 05:37:52;;;;;;;8.10;5.10;;;2.10;92.50;;;;;;5093545;28;20139;-75
2021/04/14 05:40:22;;;;;;;9.38;5.40;;;2.20;92.80;;;;;;5093367;28;20143;-75
2021/04/14 05:42:50;;;;;;;9.52;5.25;;;2.30;92.30;;;;;;5093328;28;20048;-75
2021/04/14 05:45:24;;;;;;;8.32;5.40;;;2.20;92.20;;;;;;5093141;28;20524;-74
2021/04/14 05:47:50;;;;;;;9.93;5.30;;;2.20;92.30;;;;;;5088461;28;20090;-75
2021/04/14 05:50:21;;;;;;;8.25;5.22;;;2.20;92.40;;;;;;5089618;28;20086;-76
2021/04/14 05:52:48;;;;;;;8.82;5.75;;;2.30;92.40;;;;;;5089331;28;20476;-75
2021/04/14 05:55:15;;;;;;;8.73;5.45;;;2.30;92.10;;;;;;5089220;28;20090;-75
2021/04/14 05:57:43;;;;;;;10.07;5.18;;;2.30;92.40;;;;;;5089173;28;20092;-74
2021/04/14 06:00:15;;;;;;;8.52;5.10;;;2.20;92.50;;;;;;5088596;28;20505;-75
2021/04/14 06:02:42;;;;;;;8.77;5.13;;;2.20;92.30;;;;;;5088450;28;20088;-75
2021/04/14 06:05:11;;;;;;;8.57;4.65;;;2.20;92.40;;;;;;5089293;28;20121;-74
2021/04/14 06:07:38;;;;;;;7.82;5.10;;;2.20;92.70;;;;;;5088938;28;20521;-74
2021/04/14 06:10:07;;;;;;;8.35;5.10;;;2.10;93.10;;;;;;5089208;28;20113;-75
2021/04/14 06:12:34;;;;;;;8.93;4.85;;;2.10;93.30;;;;;;5088586;28;20105;-75
2021/04/14 06:15:05;;;;;;;7.55;4.85;;;2.20;93.30;;;;;;5089402;28;20129;-75
2021/04/14 06:17:31;;;;;;;8.07;4.97;;;2.20;93.30;;;;;;5088197;28;20131;-74
2021/04/14 06:19:58;;;;;;;8.25;5.05;;;2.30;93.30;;;;;;5089116;28;20126;-75
2021/04/14 06:22:26;;;;;;;7.30;4.53;;;2.40;93.00;;;;;;5093029;28;20048;-75
2021/04/14 06:24:53;;;;;;;9.52;5.30;;;2.60;92.90;;;;;;5089091;28;20093;-74
2021/04/14 06:27:30;;;;;;;8.77;4.93;;;2.60;92.40;;;;;;5095870;28;20052;-75
2021/04/14 06:29:57;;;;;;;8.20;4.57;;;2.60;92.40;;;;;;5093115;28;20046;-76
2021/04/14 06:32:24;;;;;;;8.70;5.00;;;2.60;92.60;;;;;;5089289;28;20555;-75
2021/04/14 06:34:52;;;;;;;8.45;5.13;;;2.70;92.90;;;;;;5089276;28;20076;-76
2021/04/14 06:37:19;;;;;;;9.05;5.20;;;2.70;92.80;;;;;;5089104;28;20048;-76
2021/04/14 06:39:54;;;;;;;8.65;5.38;;;2.80;92.80;;;;;;5088415;28;20140;-75
2021/04/14 06:42:39;;;;;;;8.30;4.88;;;2.90;92.60;;;;;;5088943;28;20485;-75
2021/04/14 06:45:15;;;;;;;9.77;5.80;;;3.00;92.80;;;;;;5089257;28;20113;-76
2021/04/14 06:48:03;;;;;;;8.73;5.00;;;3.10;92.50;;;;;;5088872;28;20478;-74
2021/04/14 06:50:36;;;;;;;8.88;5.65;;;3.20;92.30;;;;;;5088711;28;20130;-75
2021/04/14 06:53:16;;;;;;;11.15;5.45;;;3.20;92.40;;;;;;5088392;28;20474;-75
2021/04/14 06:55:48;;;;;;;10.20;5.38;;;3.30;92.10;;;;;;5088461;28;20079;-74
2021/04/14 06:58:19;;;;;;;8.38;5.15;;;3.40;92.00;;;;;;5088662;28;20461;-75
2021/04/14 07:00:51;;;;;;;9.43;5.40;;;3.40;92.00;;;;;;5089048;28;20058;-75
2021/04/14 07:03:26;;;;;;;8.70;5.43;;;3.50;92.20;;;;;;5088378;28;20080;-76
2021/04/14 07:05:55;;;;;;;;;;;3.60;91.80;;;;;;5088554;28;20409;-75
2021/04/14 07:08:27;;;;;;;10.00;5.30;;;3.70;91.60;;;;;;5088756;28;19992;-77
2021/04/14 07:10:57;;;;;;;9.15;5.28;;;3.70;91.50;;;;;;5088675;28;20457;-75
2021/04/14 07:13:25;;;;;;;8.05;4.80;;;3.80;91.50;;;;;;5087953;28;20135;-75
2021/04/14 07:16:02;;;;;;;8.07;5.28;;;3.90;91.30;;;;;;5089241;28;20568;-75
2021/04/14 07:18:41;;;;;;;9.25;5.22;;;4.00;90.50;;;;;;5089005;28;20135;-76
2021/04/14 07:21:17;;;;;;;7.88;5.18;;;4.00;90.30;;;;;;5089844;28;20443;-76
2021/04/14 07:23:51;;;;;;;8.88;4.85;;;4.10;90.40;;;;;;5089614;28;20062;-75
2021/04/14 07:26:23;;;;;;;9.07;5.53;;;4.10;90.60;;;;;;5089732;28;20469;-76
2021/04/14 07:29:18;;;;;;;7.60;5.20;;;4.20;90.50;;;;;;5091109;28;20131;-76
2021/04/14 07:31:51;;;;;;;7.03;4.55;;;4.30;90.30;;;;;;5092931;28;20470;-76
2021/04/14 07:34:32;;;;;;;7.50;4.53;;;4.30;90.50;;;;;;5092983;28;20130;-76
2021/04/14 07:37:04;;;;;;;8.02;5.05;;;4.40;90.40;;;;;;5093038;28;20131;-76
2021/04/14 07:39:36;;;;;;;8.23;5.25;;;4.50;90.60;;;;;;5093487;28;20493;-76
2021/04/14 07:42:21;;;;;;;7.65;4.70;;;4.60;90.20;;;;;;5093401;28;20047;-75
2021/04/14 07:44:56;;;;;;;;;;;4.60;90.00;;;;;;5093229;28;20048;-74
2021/04/14 07:47:23;;;;;;;8.10;4.47;;;4.70;90.00;;;;;;5092833;28;20381;-77
2021/04/14 07:49:51;;;;;;;7.50;4.75;;;4.80;89.10;;;;;;5092873;28;20130;-75
2021/04/14 07:52:25;;;;;;;6.80;4.50;;;4.90;87.60;;;;;;5093402;28;20071;-75
2021/04/14 07:54:52;;;;;;;6.82;4.35;;;5.00;87.30;;;;;;5093168;28;20564;-75
2021/04/14 07:57:31;;;;;;;7.45;4.22;;;4.90;86.90;;;;;;5092418;28;20101;-75
2021/04/14 08:00:11;;;;;;;7.93;4.55;;;5.00;86.50;;;;;;5074601;28;20139;-76
2021/04/14 08:02:37;;;;;;;7.57;3.88;;;4.90;85.90;;;;;;5092876;28;20554;-75
2021/04/14 08:05:11;;;;;;;5.78;3.50;;;5.00;85.90;;;;;;5092707;28;20123;-74
2021/04/14 08:07:41;;;;;;;7.80;3.78;;;5.00;86.20;;;;;;5087369;28;20048;-74
2021/04/14 08:10:14;;;;;;;7.65;3.75;;;5.10;86.20;;;;;;5072258;28;20052;-76
2021/04/14 08:12:55;;;;;;;7.00;3.72;;;5.20;86.60;;;;;;5072386;28;20135;-74
2021/04/14 08:15:30;;;;;;;6.45;4.03;;;5.20;85.80;;;;;;5077940;28;20063;-73
2021/04/14 08:18:11;;;;;;;7.97;3.80;;;5.30;84.90;;;;;;5077561;28;20500;-76
2021/04/14 08:20:41;;;;;;;6.32;3.45;;;5.40;84.50;;;;;;5072507;28;20379;-75
2021/04/14 08:23:11;;;;;;;6.80;3.63;;;5.40;84.60;;;;;;5071533;28;20144;-76
2021/04/14 08:25:45;;;;;;;5.78;3.95;;;5.50;84.00;;;;;;5072261;28;20132;-76
2021/04/14 08:28:12;;;;;;;6.75;3.90;;;5.50;83.90;;;;;;5072264;28;20076;-75
2021/04/14 08:30:39;;;;;;;6.53;3.75;;;5.60;84.30;;;;;;5072046;28;20451;-75
2021/04/14 08:33:18;;;;;;;7.65;3.60;;;5.70;84.00;;;;;;5078523;28;20135;-76
2021/04/14 08:35:48;;;;;;;6.10;3.38;;;5.70;83.60;;;;;;5077262;28;20553;-75
2021/04/14 08:38:28;;;;;;;6.22;3.15;;;5.80;83.90;;;;;;5090054;28;20476;-75
2021/04/14 08:40:58;;;;;;;7.57;3.17;;;5.80;83.80;;;;;;5084432;28;20127;-75
2021/04/14 08:43:32;;;;;;;7.35;3.30;;;5.90;83.60;;;;;;5086683;28;20040;-75
2021/04/14 08:46:10;;;;;;;5.93;3.45;;;5.90;82.80;;;;;;5089067;28;20044;-75
2021/04/14 08:48:40;;;;;;;8.93;3.55;;;6.00;83.60;;;;;;5070973;28;20072;-78
2021/04/14 08:51:09;;;;;;;7.05;4.00;;;6.00;83.80;;;;;;5071556;28;20628;-77
2021/04/14 08:53:40;;;;;;;9.48;4.40;;;6.20;83.50;;;;;;5071120;28;20151;-76
2021/04/14 08:56:07;;;;;;;6.05;3.50;;;6.20;82.80;;;;;;5071182;28;20139;-78
2021/04/14 08:58:36;;;;;;;7.82;3.72;;;6.30;82.50;;;;;;5087755;28;20052;-75
2021/04/14 09:01:03;;;;;;;8.13;4.07;;;6.30;82.00;;;;;;5090397;28;20158;-76
2021/04/14 09:03:35;;;;;;;6.97;3.70;;;6.30;82.70;;;;;;5090714;28;20130;-74
2021/04/14 09:06:03;;;;;;;8.13;3.50;;;6.40;83.20;;;;;;5090932;28;20148;-75
2021/04/14 09:08:33;;;;;;;7.00;3.65;;;6.50;83.20;;;;;;5090799;28;20124;-75
2021/04/14 09:11:02;;;;;;;7.82;3.45;;;6.50;82.00;;;;;;5090950;28;20459;-76
2021/04/14 09:13:32;;;;;;;7.30;3.88;;;6.60;81.80;;;;;;5090026;28;20048;-74
2021/04/14 09:16:03;;;;;;;6.07;3.00;;;6.60;80.90;;;;;;5070284;28;20048;-75
2021/04/14 09:18:34;;;;;;;8.30;3.40;;;6.70;79.90;;;;;;5070873;28;20076;-74
2021/04/14 09:21:10;;;;;;;6.80;2.97;;;6.80;80.30;;;;;;5070947;28;20135;-75
2021/04/14 09:23:51;;;;;;;6.47;3.03;;;6.70;80.60;;;;;;5070704;28;20171;-75
2021/04/14 09:26:29;;;;;;;8.02;3.38;;;6.90;80.40;;;;;;5070389;28;20132;-74
2021/04/14 09:28:56;;;;;;;7.43;3.00;;;6.90;79.70;;;;;;5071118;28;20135;-74
2021/04/14 09:31:40;;;;;;;5.55;2.63;;;7.00;79.20;;;;;;5088520;28;20134;-74
2021/04/14 09:34:31;;;;;;;5.95;2.42;;;7.10;79.50;;;;;;5090931;28;20657;-74
2021/04/14 09:37:08;;;;;;;6.85;2.90;;;7.20;79.30;;;;;;5090465;28;20139;-76
2021/04/14 09:39:53;;;;;;;5.38;2.55;;;7.30;78.60;;;;;;5090844;28;20044;-74
2021/04/14 09:42:34;;;;;;;6.00;2.47;;;7.40;78.30;;;;;;5090486;28;20086;-75
2021/04/14 09:45:17;;;;;;;4.90;2.80;;;7.60;77.60;;;;;;5089211;28;20063;-74
2021/04/14 09:47:44;;;;;;;5.72;2.63;;;7.70;74.90;;;;;;5090698;28;20134;-75
2021/04/14 09:50:37;;;;;;;6.30;2.72;;;7.80;74.50;;;;;;5090985;28;20134;-74
2021/04/14 09:53:09;;;;;;;4.20;2.05;;;7.80;73.30;;;;;;5090464;28;20072;-75
2021/04/14 09:55:46;;;;;;;6.20;2.60;;;7.90;69.60;;;;;;5090316;28;20139;-77
2021/04/14 09:58:21;;;;;;;4.53;2.13;;;8.00;66.60;;;;;;5089120;28;20051;-75
2021/04/14 10:00:52;;;;;;;;;;;8.10;66.50;;;;;;5091485;28;20151;-75
2021/04/14 10:03:30;;;;;;;7.05;2.20;;;8.20;65.80;;;;;;5091178;28;19924;-77
2021/04/14 10:06:07;;;;;;;5.13;2.05;;;8.30;65.00;;;;;;5090822;28;20063;-75
2021/04/14 10:08:36;;;;;;;5.47;2.10;;;8.30;61.80;;;;;;5089925;28;20106;-75
2021/04/14 10:11:04;;;;;;;4.70;2.22;;;8.50;60.50;;;;;;5090625;28;20112;-76
2021/04/14 10:13:33;;;;;;;5.45;2.50;;;8.50;60.80;;;;;;5085671;28;20082;-76
2021/04/14 10:16:01;;;;;;;4.95;2.30;;;8.50;60.60;;;;;;5071023;28;20067;-75
2021/04/14 10:18:32;;;;;;;6.00;2.58;;;8.60;61.10;;;;;;5070118;28;20044;-75
2021/04/14 10:21:14;;;;;;;5.00;2.33;;;8.60;61.00;;;;;;5069737;28;20139;-75
2021/04/14 10:23:41;;;;;;;5.93;2.30;;;8.60;61.20;;;;;;5070010;28;20132;-74
2021/04/14 10:26:11;;;;;;;4.55;2.05;;;8.70;60.70;;;;;;5070283;28;20135;-75
2021/04/14 10:28:41;;;;;;;3.88;2.00;;;8.70;60.00;;;;;;5071209;28;20118;-75
2021/04/14 10:31:12;;;;;;;3.75;1.70;;;8.70;59.40;;;;;;5070864;28;20098;-74
2021/04/14 10:33:42;;;;;;;4.05;1.73;;;8.70;59.10;;;;;;5069986;28;20080;-75
2021/04/14 10:36:14;;;;;;;4.78;2.10;;;8.80;57.20;;;;;;5070488;28;20098;-76
2021/04/14 10:38:41;;;;;;;6.60;2.00;;;8.80;56.90;;;;;;5070575;28;20625;-75
2021/04/14 10:41:29;;;;;;;5.75;2.03;;;8.80;55.80;;;;;;5070120;28;20079;-75
2021/04/14 10:43:57;;;;;;;4.18;1.60;;;8.80;55.90;;;;;;5070794;28;20132;-75
2021/04/14 10:46:28;;;;;;;5.07;1.60;;;8.90;54.20;;;;;;5069634;28;20075;-74
2021/04/14 10:49:01;;;;;;;5.57;1.80;;;8.90;53.00;;;;;;5069778;28;20189;-75
2021/04/14 10:51:32;;;;;;;4.78;1.73;;;8.90;53.20;;;;;;5071858;28;20580;-76
2021/04/14 10:54:00;;;;;;;4.45;1.80;;;8.90;53.40;;;;;;5070764;28;20453;-74
2021/04/14 10:56:30;;;;;;;4.80;1.70;;;8.80;54.20;;;;;;5069807;28;20057;-75
2021/04/14 10:59:03;;;;;;;5.43;1.73;;;8.70;52.50;;;;;;5070985;28;20123;-77
2021/04/14 11:01:36;;;;;;;3.55;1.63;;;8.90;52.90;;;;;;5069373;28;20084;-74
2021/04/14 11:04:24;;;;;;;3.83;1.45;;;8.90;52.70;;;;;;5073262;28;20136;-75
2021/04/14 11:06:55;;;;;;;5.10;1.80;;;8.80;53.30;;;;;;5073195;28;20061;-74
2021/04/14 11:09:22;;;;;;;3.95;1.63;;;8.80;54.00;;;;;;5073714;28;20517;-74
2021/04/14 11:11:50;;;;;;;4.85;1.50;;;8.80;54.00;;;;;;5074352;28;20124;-75
2021/04/14 11:14:19;;;;;;;3.28;1.58;;;8.80;54.20;;;;;;5073013;28;20135;-74
2021/04/14 11:16:49;;;;;;;5.38;2.00;;;8.90;54.80;;;;;;5073263;28;20139;-74
2021/04/14 11:19:19;;;;;;;5.05;1.90;;;8.90;54.20;;;;;;5073555;28;20051;-75
2021/04/14 11:21:46;;;;;;;4.13;1.92;;;8.90;55.70;;;;;;5073649;28;20052;-75
2021/04/14 11:24:16;;;;;;;4.68;2.00;;;9.00;55.60;;;;;;5073318;28;20079;-76
2021/04/14 11:26:51;;;;;;;4.20;1.52;;;9.00;56.00;;;;;;5074031;28;20083;-75
2021/04/14 11:29:23;;;;;;;;;;;9.00;55.30;;;;;;5073646;28;20566;-75
2021/04/14 11:31:51;;;;;;;4.82;1.75;;;9.00;55.70;;;;;;5073149;28;20088;-76
2021/04/14 11:34:21;;;;;;;5.07;1.88;;;9.00;56.40;;;;;;5073091;28;20125;-75
2021/04/14 11:37:00;;;;;;;3.50;1.52;;;9.10;55.20;;;;;;5072890;28;20079;-76
2021/04/14 11:39:29;;;;;;;4.78;1.50;;;9.00;55.90;;;;;;5072293;28;20509;-75
2021/04/14 11:42:16;;;;;;;4.88;1.70;;;9.00;55.80;;;;;;5073698;28;20045;-75
2021/04/14 11:44:46;;;;;;;3.72;1.58;;;9.00;55.70;;;;;;5072886;28;20087;-74
2021/04/14 11:47:26;;;;;;;4.22;1.70;;;9.10;55.40;;;;;;5072993;28;20051;-76
2021/04/14 11:49:53;;;;;;;5.30;2.00;;;9.00;55.70;;;;;;5072746;28;20140;-74
2021/04/14 11:52:31;;;;;;;4.28;1.90;;;9.10;55.30;;;;;;5072255;28;20132;-76
2021/04/14 11:55:09;;;;;;;4.22;1.67;;;9.10;54.80;;;;;;5072619;28;20139;-75
2021/04/14 11:57:43;;;;;;;5.22;2.17;;;9.10;54.00;;;;;;5073667;28;20185;-75
2021/04/14 12:00:30;;;;;;;4.97;2.10;;;9.20;53.80;;;;;;5072509;28;20076;-80
2021/04/14 12:03:02;;;;;;;4.32;1.90;;;9.20;54.00;;;;;;5073449;28;20099;-79
2021/04/14 12:05:30;;;;;;;5.03;1.70;;;9.30;55.20;;;;;;5072225;28;20041;-83
2021/04/14 12:07:57;;;;;;;3.70;1.70;;;9.30;53.30;;;;;;5072317;28;20048;-79
2021/04/14 12:10:23;;;;;;;4.60;1.90;;;9.30;52.90;;;;;;5074080;28;20076;-79
2021/04/14 12:12:51;;;;;;;3.88;1.80;;;9.40;51.70;;;;;;5072588;28;20472;-80
2021/04/14 12:15:19;;;;;;;4.32;1.60;;;9.40;50.40;;;;;;5072016;28;20083;-79
2021/04/14 12:17:46;;;;;;;3.95;1.60;;;9.50;51.90;;;;;;5054126;28;20591;-79
2021/04/14 12:20:14;;;;;;;3.03;1.63;;;9.50;51.70;;;;;;5072177;28;20080;-79
2021/04/14 12:22:41;;;;;;;4.18;1.75;;;9.50;52.70;;;;;;5072188;28;20122;-79
2021/04/14 12:25:10;;;;;;;5.65;2.22;;;9.70;52.80;;;;;;5072826;28;20076;-78
2021/04/14 12:27:37;;;;;;;5.15;1.70;;;9.80;52.80;;;;;;5072812;28;20052;-79
2021/04/14 12:30:07;;;;;;;4.07;1.60;;;9.80;52.60;;;;;;5072438;28;20560;-79
2021/04/14 12:32:34;;;;;;;8.32;3.65;;;9.80;52.60;;;;;;5072192;28;20083;-80
2021/04/14 12:35:01;;;;;;;7.32;2.85;;;9.90;52.30;;;;;;5071867;28;20502;-80
2021/04/14 12:37:28;;;;;;;5.22;2.60;;;10.00;51.50;;;;;;5054854;28;20079;-78
2021/04/14 12:39:54;;;;;;;4.40;1.90;;;10.00;51.60;;;;;;5072523;28;20143;-80
2021/04/14 12:42:21;;;;;;;4.53;1.92;;;10.00;51.40;;;;;;5071953;28;20049;-79
2021/04/14 12:44:50;;;;;;;4.15;1.75;;;10.00;51.30;;;;;;5053478;28;20127;-79
2021/04/14 12:47:22;;;;;;;3.58;1.70;;;10.10;51.10;;;;;;5071956;28;20123;-78
2021/04/14 12:49:50;;;;;;;3.70;1.70;;;10.10;51.10;;;;;;5071796;28;20055;-79
2021/04/14 12:52:25;;;;;;;3.22;1.60;;;10.20;51.00;;;;;;5071263;28;20115;-80
2021/04/14 12:54:56;;;;;;;4.55;2.13;;;10.20;50.80;;;;;;5072809;28;20118;-79
2021/04/14 12:57:27;;;;;;;4.57;2.45;;;10.30;50.60;;;;;;5071070;28;20092;-79
2021/04/14 13:00:04;;;;;;;6.07;2.40;;;10.40;50.80;;;;;;5071506;28;20067;-78
2021/04/14 13:02:37;;;;;;;4.80;2.00;;;10.40;50.40;;;;;;5071423;28;20396;-79
2021/04/14 13:05:13;;;;;;;7.97;2.20;;;10.60;49.30;;;;;;5071840;28;20490;-81
2021/04/14 13:07:45;;;;;;;3.47;1.80;;;10.60;49.20;;;;;;5033886;28;20123;-79
2021/04/14 13:10:12;;;;;;;4.07;1.63;;;10.80;49.50;;;;;;5050765;28;20143;-79
2021/04/14 13:12:40;;;;;;;4.20;1.65;;;10.90;50.00;;;;;;5051138;28;20135;-79